sensor_id;sensor_type;location;lat;lon;timestamp;pressure;altitude;pressure_sealevel;temperature;humidity
76074;BME280;64776;42.636;24.358;2023-12-28T00:02:51;91153.63;;;-1.19;84.78
76074;BME280;64776;42.636;24.358;2023-12-28T00:05:54;91157.75;;;-1.14;84.30
76074;BME280;64776;42.636;24.358;2023-12-28T00:08:54;91161.84;;;-1.17;83.93
76074;BME280;64776;42.636;24.358;2023-12-28T00:11:55;91162.22;;;-1.18;84.07
76074;BME280;64776;42.636;24.358;2023-12-28T00:14:56;91170.47;;;-1.16;83.86
76074;BME280;64776;42.636;24.358;2023-12-28T00:17:57;91174.56;;;-1.22;84.06
76074;BME280;64776;42.636;24.358;2023-12-28T00:21:00;91167.09;;;-1.24;84.11
76074;BME280;64776;42.636;24.358;2023-12-28T00:24:01;91175.69;;;-1.27;83.83
76074;BME280;64776;42.636;24.358;2023-12-28T00:27:02;91173.81;;;-1.26;83.70
76074;BME280;64776;42.636;24.358;2023-12-28T00:30:03;91170.06;;;-1.25;83.88
76074;BME280;64776;42.636;24.358;2023-12-28T00:33:04;91168.59;;;-1.26;83.76
76074;BME280;64776;42.636;24.358;2023-12-28T00:36:07;91167.84;;;-1.30;83.92
76074;BME280;64776;42.636;24.358;2023-12-28T00:39:08;91172.31;;;-1.38;84.17
76074;BME280;64776;42.636;24.358;2023-12-28T00:42:09;91174.56;;;-1.29;83.77
76074;BME280;64776;42.636;24.358;2023-12-28T00:45:10;91176.06;;;-1.35;83.91
76074;BME280;64776;42.636;24.358;2023-12-28T00:48:10;91181.66;;;-1.37;83.29
76074;BME280;64776;42.636;24.358;2023-12-28T00:51:13;91182.78;;;-1.41;83.00
76074;BME280;64776;42.636;24.358;2023-12-28T00:54:14;91188.00;;;-1.38;82.67
76074;BME280;64776;42.636;24.358;2023-12-28T00:57:15;91185.03;;;-1.36;82.63
76074;BME280;64776;42.636;24.358;2023-12-28T01:00:16;91184.28;;;-1.40;82.73
76074;BME280;64776;42.636;24.358;2023-12-28T01:03:17;91199.97;;;-1.47;82.81
76074;BME280;64776;42.636;24.358;2023-12-28T01:06:19;91187.22;;;-1.56;83.29
76074;BME280;64776;42.636;24.358;2023-12-28T01:09:19;91193.97;;;-1.55;83.00
76074;BME280;64776;42.636;24.358;2023-12-28T01:12:20;91192.47;;;-1.59;83.21
76074;BME280;64776;42.636;24.358;2023-12-28T01:15:21;91190.97;;;-1.57;83.37
76074;BME280;64776;42.636;24.358;2023-12-28T01:18:22;91193.97;;;-1.51;83.45
76074;BME280;64776;42.636;24.358;2023-12-28T01:21:24;91188.00;;;-1.48;83.35
76074;BME280;64776;42.636;24.358;2023-12-28T01:24:25;91188.72;;;-1.58;83.23
76074;BME280;64776;42.636;24.358;2023-12-28T01:27:25;91190.56;;;-1.66;83.33
76074;BME280;64776;42.636;24.358;2023-12-28T01:30:26;91190.19;;;-1.65;83.58
76074;BME280;64776;42.636;24.358;2023-12-28T01:33:27;91184.97;;;-1.72;83.83
76074;BME280;64776;42.636;24.358;2023-12-28T01:36:29;91176.72;;;-1.84;83.82
76074;BME280;64776;42.636;24.358;2023-12-28T01:39:30;91189.41;;;-1.90;84.71
76074;BME280;64776;42.636;24.358;2023-12-28T01:42:31;91183.81;;;-1.81;84.49
76074;BME280;64776;42.636;24.358;2023-12-28T01:45:32;91176.72;;;-1.81;84.27
76074;BME280;64776;42.636;24.358;2023-12-28T01:48:33;91181.19;;;-1.81;83.54
76074;BME280;64776;42.636;24.358;2023-12-28T01:51:36;91185.69;;;-1.82;83.09
76074;BME280;64776;42.636;24.358;2023-12-28T01:54:38;91186.38;;;-1.95;83.47
76074;BME280;64776;42.636;24.358;2023-12-28T01:57:39;91190.03;;;-2.21;84.91
76074;BME280;64776;42.636;24.358;2023-12-28T02:00:40;91192.31;;;-2.09;84.98
76074;BME280;64776;42.636;24.358;2023-12-28T02:03:42;91191.56;;;-2.09;84.68
76074;BME280;64776;42.636;24.358;2023-12-28T02:06:44;91194.56;;;-2.11;84.37
76074;BME280;64776;42.636;24.358;2023-12-28T02:09:45;91185.25;;;-1.98;84.23
76074;BME280;64776;42.636;24.358;2023-12-28T02:12:45;91183.38;;;-1.94;84.13
76074;BME280;64776;42.636;24.358;2023-12-28T02:15:51;91180.06;;;-1.91;83.87
76074;BME280;64776;42.636;24.358;2023-12-28T02:18:56;91180.47;;;-1.82;83.75
76074;BME280;64776;42.636;24.358;2023-12-28T02:22:02;91178.94;;;-1.90;83.82
76074;BME280;64776;42.636;24.358;2023-12-28T02:25:06;91173.69;;;-1.97;83.86
76074;BME280;64776;42.636;24.358;2023-12-28T02:28:08;91170.69;;;-2.02;83.92
76074;BME280;64776;42.636;24.358;2023-12-28T02:31:11;91176.63;;;-2.02;83.95
76074;BME280;64776;42.636;24.358;2023-12-28T02:34:19;91175.16;;;-2.03;83.85
76074;BME280;64776;42.636;24.358;2023-12-28T02:37:23;91179.63;;;-2.07;83.86
76074;BME280;64776;42.636;24.358;2023-12-28T02:40:27;91179.25;;;-2.09;83.51
76074;BME280;64776;42.636;24.358;2023-12-28T02:43:28;91178.13;;;-2.08;83.75
76074;BME280;64776;42.636;24.358;2023-12-28T02:46:29;91178.13;;;-2.11;83.01
76074;BME280;64776;42.636;24.358;2023-12-28T02:49:30;91179.59;;;-2.14;83.14
76074;BME280;64776;42.636;24.358;2023-12-28T02:52:31;91180.72;;;-2.15;82.87
76074;BME280;64776;42.636;24.358;2023-12-28T02:55:33;91181.09;;;-2.13;82.71
76074;BME280;64776;42.636;24.358;2023-12-28T02:58:34;91180.34;;;-2.17;83.17
76074;BME280;64776;42.636;24.358;2023-12-28T03:01:34;91177.34;;;-2.15;83.13
76074;BME280;64776;42.636;24.358;2023-12-28T03:04:35;91179.59;;;-2.17;82.98
76074;BME280;64776;42.636;24.358;2023-12-28T03:07:36;91175.84;;;-2.20;83.34
76074;BME280;64776;42.636;24.358;2023-12-28T03:10:39;91173.59;;;-2.21;83.19
76074;BME280;64776;42.636;24.358;2023-12-28T03:13:40;91169.84;;;-2.27;83.49
76074;BME280;64776;42.636;24.358;2023-12-28T03:16:40;91172.47;;;-2.24;83.74
76074;BME280;64776;42.636;24.358;2023-12-28T03:19:41;91170.22;;;-2.29;83.57
76074;BME280;64776;42.636;24.358;2023-12-28T03:22:42;91169.84;;;-2.31;83.42
76074;BME280;64776;42.636;24.358;2023-12-28T03:25:44;91173.91;;;-2.33;83.38
76074;BME280;64776;42.636;24.358;2023-12-28T03:28:45;91173.91;;;-2.33;83.49
76074;BME280;64776;42.636;24.358;2023-12-28T03:31:45;91172.44;;;-2.31;83.92
76074;BME280;64776;42.636;24.358;2023-12-28T03:34:46;91174.69;;;-2.26;83.39
76074;BME280;64776;42.636;24.358;2023-12-28T03:37:47;91172.09;;;-2.22;83.35
76074;BME280;64776;42.636;24.358;2023-12-28T03:40:49;91173.22;;;-2.27;82.70
76074;BME280;64776;42.636;24.358;2023-12-28T03:43:50;91182.53;;;-2.29;82.46
76074;BME280;64776;42.636;24.358;2023-12-28T03:46:50;91179.09;;;-2.37;83.16
76074;BME280;64776;42.636;24.358;2023-12-28T03:49:51;91178.00;;;-2.36;83.21
76074;BME280;64776;42.636;24.358;2023-12-28T03:52:52;91178.00;;;-2.32;83.59
76074;BME280;64776;42.636;24.358;2023-12-28T03:55:54;91170.56;;;-2.30;83.44
76074;BME280;64776;42.636;24.358;2023-12-28T03:58:55;91184.34;;;-2.37;83.28
76074;BME280;64776;42.636;24.358;2023-12-28T04:01:56;91185.47;;;-2.34;83.57
76074;BME280;64776;42.636;24.358;2023-12-28T04:04:56;91183.16;;;-2.50;83.94
76074;BME280;64776;42.636;24.358;2023-12-28T04:07:57;91178.00;;;-2.36;84.79
76074;BME280;64776;42.636;24.358;2023-12-28T04:10:59;91176.47;;;-2.44;84.38
76074;BME280;64776;42.636;24.358;2023-12-28T04:14:00;91182.03;;;-2.53;84.44
76074;BME280;64776;42.636;24.358;2023-12-28T04:17:01;91183.06;;;-2.68;84.27
76074;BME280;64776;42.636;24.358;2023-12-28T04:20:02;91182.31;;;-2.68;84.72
76074;BME280;64776;42.636;24.358;2023-12-28T04:23:03;91187.50;;;-2.72;84.42
76074;BME280;64776;42.636;24.358;2023-12-28T04:26:06;91180.88;;;-2.62;84.60
76074;BME280;64776;42.636;24.358;2023-12-28T04:29:06;91186.09;;;-2.59;83.96
76074;BME280;64776;42.636;24.358;2023-12-28T04:32:07;91190.19;;;-2.65;84.43
76074;BME280;64776;42.636;24.358;2023-12-28T04:35:08;91193.50;;;-2.68;83.97
76074;BME280;64776;42.636;24.358;2023-12-28T04:38:09;91186.81;;;-2.65;84.26
76074;BME280;64776;42.636;24.358;2023-12-28T04:41:11;91179.78;;;-2.58;84.26
76074;BME280;64776;42.636;24.358;2023-12-28T04:44:12;91184.56;;;-2.63;84.99
76074;BME280;64776;42.636;24.358;2023-12-28T04:47:12;91182.28;;;-2.72;84.67
76074;BME280;64776;42.636;24.358;2023-12-28T04:50:13;91182.66;;;-2.70;84.60
76074;BME280;64776;42.636;24.358;2023-12-28T04:53:14;91181.59;;;-2.65;84.81
76074;BME280;64776;42.636;24.358;2023-12-28T04:56:19;91173.81;;;-2.55;84.92
76074;BME280;64776;42.636;24.358;2023-12-28T04:59:20;91178.66;;;-2.53;84.64
76074;BME280;64776;42.636;24.358;2023-12-28T05:02:20;91181.66;;;-2.51;84.25
76074;BME280;64776;42.636;24.358;2023-12-28T05:05:21;91179.81;;;-2.47;84.20
76074;BME280;64776;42.636;24.358;2023-12-28T05:08:22;91175.66;;;-2.55;84.48
76074;BME280;64776;42.636;24.358;2023-12-28T05:11:24;91184.25;;;-2.58;84.59
76074;BME280;64776;42.636;24.358;2023-12-28T05:14:25;91191.66;;;-2.64;84.39
76074;BME280;64776;42.636;24.358;2023-12-28T05:17:26;91188.69;;;-2.62;84.79
76074;BME280;64776;42.636;24.358;2023-12-28T05:20:26;91184.91;;;-2.72;84.76
76074;BME280;64776;42.636;24.358;2023-12-28T05:23:27;91184.56;;;-2.67;84.70
76074;BME280;64776;42.636;24.358;2023-12-28T05:26:29;91185.31;;;-2.66;84.59
76074;BME280;64776;42.636;24.358;2023-12-28T05:29:30;91186.78;;;-2.72;84.63
76074;BME280;64776;42.636;24.358;2023-12-28T05:32:31;91191.63;;;-2.74;85.06
76074;BME280;64776;42.636;24.358;2023-12-28T05:35:32;91182.25;;;-2.79;85.33
76074;BME280;64776;42.636;24.358;2023-12-28T05:38:33;91179.22;;;-2.84;85.28
76074;BME280;64776;42.636;24.358;2023-12-28T05:41:35;91182.59;;;-2.80;85.33
76074;BME280;64776;42.636;24.358;2023-12-28T05:44:35;91180.78;;;-2.76;85.25
76074;BME280;64776;42.636;24.358;2023-12-28T05:47:36;91176.34;;;-2.72;85.25
76074;BME280;64776;42.636;24.358;2023-12-28T05:50:37;91178.19;;;-2.76;85.12
76074;BME280;64776;42.636;24.358;2023-12-28T05:53:38;91180.78;;;-2.76;84.82
76074;BME280;64776;42.636;24.358;2023-12-28T05:56:40;91184.44;;;-2.84;85.26
76074;BME280;64776;42.636;24.358;2023-12-28T05:59:41;91183.28;;;-2.90;85.89
76074;BME280;64776;42.636;24.358;2023-12-28T06:02:41;91187.41;;;-2.89;86.19
76074;BME280;64776;42.636;24.358;2023-12-28T06:05:43;91194.84;;;-2.91;86.35
76074;BME280;64776;42.636;24.358;2023-12-28T06:08:44;91191.16;;;-2.87;86.15
76074;BME280;64776;42.636;24.358;2023-12-28T06:11:46;91199.78;;;-2.76;85.91
76074;BME280;64776;42.636;24.358;2023-12-28T06:14:47;91195.38;;;-2.68;85.77
76074;BME280;64776;42.636;24.358;2023-12-28T06:17:48;91198.38;;;-2.66;85.28
76074;BME280;64776;42.636;24.358;2023-12-28T06:20:49;91200.59;;;-2.68;85.19
76074;BME280;64776;42.636;24.358;2023-12-28T06:23:49;91197.56;;;-2.74;85.07
76074;BME280;64776;42.636;24.358;2023-12-28T06:26:51;91203.16;;;-2.79;85.29
76074;BME280;64776;42.636;24.358;2023-12-28T06:29:52;91204.69;;;-2.71;85.50
76074;BME280;64776;42.636;24.358;2023-12-28T06:32:53;91203.22;;;-2.65;86.41
76074;BME280;64776;42.636;24.358;2023-12-28T06:35:54;91203.22;;;-2.65;87.49
76074;BME280;64776;42.636;24.358;2023-12-28T06:38:55;91209.22;;;-2.61;87.46
76074;BME280;64776;42.636;24.358;2023-12-28T06:41:57;91212.22;;;-2.59;86.96
76074;BME280;64776;42.636;24.358;2023-12-28T06:44:58;91205.13;;;-2.58;87.10
76074;BME280;64776;42.636;24.358;2023-12-28T06:47:58;91210.06;;;-2.46;87.31
76074;BME280;64776;42.636;24.358;2023-12-28T06:50:59;91203.38;;;-2.36;87.41
76074;BME280;64776;42.636;24.358;2023-12-28T06:54:00;91211.25;;;-2.33;87.69
76074;BME280;64776;42.636;24.358;2023-12-28T06:57:02;91210.19;;;-2.25;87.50
76074;BME280;64776;42.636;24.358;2023-12-28T07:00:04;91206.81;;;-2.22;87.55
76074;BME280;64776;42.636;24.358;2023-12-28T07:03:05;91208.72;;;-2.19;87.25
76074;BME280;64776;42.636;24.358;2023-12-28T07:06:06;91213.22;;;-2.09;87.44
76074;BME280;64776;42.636;24.358;2023-12-28T07:09:07;91210.66;;;-1.98;87.34
76074;BME280;64776;42.636;24.358;2023-12-28T07:12:09;91204.72;;;-1.92;87.01
76074;BME280;64776;42.636;24.358;2023-12-28T07:15:10;91204.72;;;-1.88;86.99
76074;BME280;64776;42.636;24.358;2023-12-28T07:18:10;91200.63;;;-1.82;86.59
76074;BME280;64776;42.636;24.358;2023-12-28T07:21:11;91196.19;;;-1.68;86.69
76074;BME280;64776;42.636;24.358;2023-12-28T07:24:12;91204.41;;;-1.58;86.84
76074;BME280;64776;42.636;24.358;2023-12-28T07:27:14;91196.97;;;-1.46;86.86
76074;BME280;64776;42.636;24.358;2023-12-28T07:30:15;91201.47;;;-1.36;87.06
76074;BME280;64776;42.636;24.358;2023-12-28T07:33:16;91193.66;;;-1.22;86.86
76074;BME280;64776;42.636;24.358;2023-12-28T07:36:16;91200.03;;;-1.02;86.83
76074;BME280;64776;42.636;24.358;2023-12-28T07:39:17;91195.88;;;-0.89;86.71
76074;BME280;64776;42.636;24.358;2023-12-28T07:42:19;91194.03;;;-0.81;86.02
76074;BME280;64776;42.636;24.358;2023-12-28T07:45:20;91200.75;;;-0.69;85.86
76074;BME280;64776;42.636;24.358;2023-12-28T07:48:21;91193.25;;;-0.60;84.88
76074;BME280;64776;42.636;24.358;2023-12-28T07:51:21;91199.97;;;-0.49;85.09
76074;BME280;64776;42.636;24.358;2023-12-28T07:54:22;91195.47;;;-0.38;85.21
76074;BME280;64776;42.636;24.358;2023-12-28T07:57:25;91203.28;;;-0.24;85.06
76074;BME280;64776;42.636;24.358;2023-12-28T08:00:26;91198.00;;;-0.03;84.81
76074;BME280;64776;42.636;24.358;2023-12-28T08:03:26;91208.03;;;0.13;85.51
76074;BME280;64776;42.636;24.358;2023-12-28T08:06:28;91200.50;;;0.26;85.28
76074;BME280;64776;42.636;24.358;2023-12-28T08:09:28;91201.16;;;0.44;84.69
76074;BME280;64776;42.636;24.358;2023-12-28T08:12:31;91195.06;;;0.61;85.07
76074;BME280;64776;42.636;24.358;2023-12-28T08:15:31;91202.84;;;0.78;84.62
76074;BME280;64776;42.636;24.358;2023-12-28T08:18:32;91192.53;;;1.05;84.42
76074;BME280;64776;42.636;24.358;2023-12-28T08:21:33;91196.88;;;1.26;82.34
76074;BME280;64776;42.636;24.358;2023-12-28T08:24:34;91196.28;;;1.52;82.42
76074;BME280;64776;42.636;24.358;2023-12-28T08:27:36;91192.72;;;1.73;81.41
76074;BME280;64776;42.636;24.358;2023-12-28T08:30:37;91187.31;;;1.87;80.23
76074;BME280;64776;42.636;24.358;2023-12-28T08:33:38;91184.81;;;2.10;78.64
76074;BME280;64776;42.636;24.358;2023-12-28T08:36:38;91192.78;;;2.33;78.19
76074;BME280;64776;42.636;24.358;2023-12-28T08:39:40;91185.81;;;2.49;78.05
76074;BME280;64776;42.636;24.358;2023-12-28T08:42:42;91192.13;;;2.59;77.62
76074;BME280;64776;42.636;24.358;2023-12-28T08:45:43;91187.91;;;2.65;77.10
76074;BME280;64776;42.636;24.358;2023-12-28T08:48:44;91189.94;;;2.81;76.71
76074;BME280;64776;42.636;24.358;2023-12-28T08:51:44;91175.28;;;3.06;75.15
76074;BME280;64776;42.636;24.358;2023-12-28T08:54:45;91182.53;;;3.25;74.74
76074;BME280;64776;42.636;24.358;2023-12-28T08:57:47;91179.88;;;3.49;73.35
76074;BME280;64776;42.636;24.358;2023-12-28T09:00:48;91179.41;;;3.77;72.13
76074;BME280;64776;42.636;24.358;2023-12-28T09:03:49;91172.59;;;3.99;72.37
76074;BME280;64776;42.636;24.358;2023-12-28T09:06:50;91167.31;;;4.19;71.46
76074;BME280;64776;42.636;24.358;2023-12-28T09:09:50;91163.84;;;4.41;70.66
76074;BME280;64776;42.636;24.358;2023-12-28T09:12:53;91158.81;;;4.66;68.31
76074;BME280;64776;42.636;24.358;2023-12-28T09:15:53;91151.25;;;4.84;67.52
76074;BME280;64776;42.636;24.358;2023-12-28T09:18:54;91140.38;;;4.99;66.46
76074;BME280;64776;42.636;24.358;2023-12-28T09:21:55;91137.09;;;5.11;66.40
76074;BME280;64776;42.636;24.358;2023-12-28T09:24:56;91134.34;;;5.30;65.78
76074;BME280;64776;42.636;24.358;2023-12-28T09:27:58;91133.41;;;5.53;65.60
76074;BME280;64776;42.636;24.358;2023-12-28T09:31:00;91109.06;;;5.74;64.69
76074;BME280;64776;42.636;24.358;2023-12-28T09:34:01;91113.91;;;6.08;64.67
76074;BME280;64776;42.636;24.358;2023-12-28T09:37:01;91109.09;;;6.44;64.30
76074;BME280;64776;42.636;24.358;2023-12-28T09:40:03;91099.38;;;6.79;61.46
76074;BME280;64776;42.636;24.358;2023-12-28T09:43:12;91097.34;;;7.08;62.83
76074;BME280;64776;42.636;24.358;2023-12-28T09:46:14;91085.22;;;7.32;59.88
76074;BME280;64776;42.636;24.358;2023-12-28T09:49:16;91079.13;;;7.44;59.79
76074;BME280;64776;42.636;24.358;2023-12-28T09:52:17;91075.72;;;7.56;58.97
76074;BME280;64776;42.636;24.358;2023-12-28T09:55:18;91067.44;;;7.88;60.59
76074;BME280;64776;42.636;24.358;2023-12-28T09:58:21;91070.97;;;8.29;59.13
76074;BME280;64776;42.636;24.358;2023-12-28T10:01:22;91065.44;;;8.66;58.24
76074;BME280;64776;42.636;24.358;2023-12-28T10:04:23;91049.44;;;8.97;56.91
76074;BME280;64776;42.636;24.358;2023-12-28T10:07:24;91056.66;;;9.27;58.84
76074;BME280;64776;42.636;24.358;2023-12-28T10:10:24;91054.00;;;9.54;52.12
76074;BME280;64776;42.636;24.358;2023-12-28T10:13:26;91046.34;;;9.74;53.28
76074;BME280;64776;42.636;24.358;2023-12-28T10:16:27;91044.13;;;10.18;50.82
76074;BME280;64776;42.636;24.358;2023-12-28T10:19:28;91033.44;;;10.36;47.79
76074;BME280;64776;42.636;24.358;2023-12-28T10:22:29;91032.03;;;10.68;49.04
76074;BME280;64776;42.636;24.358;2023-12-28T10:25:31;91036.13;;;10.87;47.68
76074;BME280;64776;42.636;24.358;2023-12-28T10:28:34;91021.28;;;11.19;46.90
76074;BME280;64776;42.636;24.358;2023-12-28T10:31:35;91020.31;;;11.55;48.31
76074;BME280;64776;42.636;24.358;2023-12-28T10:34:36;91023.97;;;11.90;48.75
76074;BME280;64776;42.636;24.358;2023-12-28T10:37:39;91026.25;;;12.20;50.36
76074;BME280;64776;42.636;24.358;2023-12-28T10:40:41;91017.78;;;12.51;48.00
76074;BME280;64776;42.636;24.358;2023-12-28T10:43:46;91009.94;;;12.77;48.17
76074;BME280;64776;42.636;24.358;2023-12-28T10:46:48;91010.94;;;12.79;45.21
76074;BME280;64776;42.636;24.358;2023-12-28T10:49:53;91003.19;;;12.81;44.52
76074;BME280;64776;42.636;24.358;2023-12-28T10:53:15;90999.56;;;12.84;43.83
76074;BME280;64776;42.636;24.358;2023-12-28T10:56:22;90999.16;;;13.21;44.92
76074;BME280;64776;42.636;24.358;2023-12-28T10:59:31;90986.97;;;13.40;44.60
76074;BME280;64776;42.636;24.358;2023-12-28T11:02:38;90990.09;;;13.53;45.23
76074;BME280;64776;42.636;24.358;2023-12-28T11:05:40;90985.91;;;13.52;44.85
76074;BME280;64776;42.636;24.358;2023-12-28T11:08:43;90975.59;;;13.65;44.97
76074;BME280;64776;42.636;24.358;2023-12-28T11:11:47;90979.16;;;13.76;41.81
76074;BME280;64776;42.636;24.358;2023-12-28T11:14:51;90975.47;;;13.94;44.37
76074;BME280;64776;42.636;24.358;2023-12-28T11:17:52;90975.94;;;13.93;40.32
76074;BME280;64776;42.636;24.358;2023-12-28T11:20:53;90967.47;;;14.25;42.74
76074;BME280;64776;42.636;24.358;2023-12-28T11:23:54;90970.88;;;14.46;44.14
76074;BME280;64776;42.636;24.358;2023-12-28T11:26:56;90958.41;;;14.74;41.89
76074;BME280;64776;42.636;24.358;2023-12-28T11:29:58;90953.50;;;15.04;44.00
76074;BME280;64776;42.636;24.358;2023-12-28T11:32:59;90954.56;;;15.23;38.12
76074;BME280;64776;42.636;24.358;2023-12-28T11:36:00;90940.25;;;15.37;40.98
76074;BME280;64776;42.636;24.358;2023-12-28T11:39:03;90939.34;;;15.45;36.46
76074;BME280;64776;42.636;24.358;2023-12-28T11:42:06;90932.56;;;15.56;36.86
76074;BME280;64776;42.636;24.358;2023-12-28T11:45:10;90934.94;;;15.06;33.93
76074;BME280;64776;42.636;24.358;2023-12-28T11:48:22;90922.41;;;14.29;34.86
76074;BME280;64776;42.636;24.358;2023-12-28T11:51:23;90918.66;;;14.21;34.88
76074;BME280;64776;42.636;24.358;2023-12-28T11:54:24;90914.91;;;14.13;36.45
76074;BME280;64776;42.636;24.358;2023-12-28T11:57:25;90916.97;;;14.24;34.78
76074;BME280;64776;42.636;24.358;2023-12-28T12:00:27;90921.56;;;14.49;35.06
76074;BME280;64776;42.636;24.358;2023-12-28T12:03:28;90910.16;;;14.54;35.03
76074;BME280;64776;42.636;24.358;2023-12-28T12:06:29;90910.53;;;14.73;34.00
76074;BME280;64776;42.636;24.358;2023-12-28T12:09:30;90905.72;;;14.82;36.15
76074;BME280;64776;42.636;24.358;2023-12-28T12:12:31;90901.94;;;15.00;39.23
76074;BME280;64776;42.636;24.358;2023-12-28T12:15:33;90893.91;;;15.11;35.52
76074;BME280;64776;42.636;24.358;2023-12-28T12:18:34;90895.00;;;14.88;33.46
76074;BME280;64776;42.636;24.358;2023-12-28T12:21:35;90899.28;;;14.68;33.05
76074;BME280;64776;42.636;24.358;2023-12-28T12:24:36;90888.19;;;14.55;34.57
76074;BME280;64776;42.636;24.358;2023-12-28T12:27:38;90889.53;;;14.71;36.50
76074;BME280;64776;42.636;24.358;2023-12-28T12:30:40;90895.06;;;14.99;40.45
76074;BME280;64776;42.636;24.358;2023-12-28T12:33:41;90891.72;;;15.09;38.41
76074;BME280;64776;42.636;24.358;2023-12-28T12:36:42;90891.22;;;15.11;40.82
76074;BME280;64776;42.636;24.358;2023-12-28T12:39:43;90890.81;;;15.23;40.57
76074;BME280;64776;42.636;24.358;2023-12-28T12:42:51;90904.88;;;15.02;41.68
76074;BME280;64776;42.636;24.358;2023-12-28T12:45:54;90911.69;;;14.97;42.92
76074;BME280;64776;42.636;24.358;2023-12-28T12:48:55;90909.03;;;14.66;44.15
76074;BME280;64776;42.636;24.358;2023-12-28T12:51:56;90910.78;;;14.75;45.43
76074;BME280;64776;42.636;24.358;2023-12-28T12:54:57;90911.41;;;14.90;45.02
76074;BME280;64776;42.636;24.358;2023-12-28T12:57:57;90911.97;;;15.05;44.30
76074;BME280;64776;42.636;24.358;2023-12-28T13:01:00;90911.03;;;15.13;43.48
76074;BME280;64776;42.636;24.358;2023-12-28T13:04:00;90903.19;;;15.10;41.91
76074;BME280;64776;42.636;24.358;2023-12-28T13:07:01;90904.09;;;14.96;42.67
76074;BME280;64776;42.636;24.358;2023-12-28T13:10:08;90901.97;;;14.68;42.74
76074;BME280;64776;42.636;24.358;2023-12-28T13:13:08;90907.69;;;14.50;43.15
76074;BME280;64776;42.636;24.358;2023-12-28T13:16:11;90911.34;;;14.53;43.02
76074;BME280;64776;42.636;24.358;2023-12-28T13:19:11;90916.63;;;14.16;44.01
76074;BME280;64776;42.636;24.358;2023-12-28T13:22:12;90910.63;;;14.27;44.64
76074;BME280;64776;42.636;24.358;2023-12-28T13:25:13;90919.38;;;14.47;45.16
76074;BME280;64776;42.636;24.358;2023-12-28T13:28:14;90907.97;;;14.52;44.16
76074;BME280;64776;42.636;24.358;2023-12-28T13:31:16;90915.81;;;14.30;44.56
76074;BME280;64776;42.636;24.358;2023-12-28T13:34:17;90908.38;;;13.94;44.43
76074;BME280;64776;42.636;24.358;2023-12-28T13:37:18;90910.41;;;13.53;45.42
76074;BME280;64776;42.636;24.358;2023-12-28T13:40:19;90916.97;;;13.12;46.91
76074;BME280;64776;42.636;24.358;2023-12-28T13:43:20;90919.88;;;12.30;48.08
76074;BME280;64776;42.636;24.358;2023-12-28T13:46:22;90926.25;;;11.65;48.65
76074;BME280;64776;42.636;24.358;2023-12-28T13:49:23;90918.34;;;11.32;48.48
76074;BME280;64776;42.636;24.358;2023-12-28T13:52:24;90923.63;;;10.94;49.81
76074;BME280;64776;42.636;24.358;2023-12-28T13:55:25;90926.41;;;9.83;50.27
76074;BME280;64776;42.636;24.358;2023-12-28T13:58:25;90924.88;;;10.10;50.12
76074;BME280;64776;42.636;24.358;2023-12-28T14:01:28;90928.03;;;9.99;52.19
76074;BME280;64776;42.636;24.358;2023-12-28T14:04:28;90926.09;;;9.91;51.98
76074;BME280;64776;42.636;24.358;2023-12-28T14:07:29;90929.22;;;9.71;52.14
76074;BME280;64776;42.636;24.358;2023-12-28T14:10:30;90924.66;;;9.44;51.35
76074;BME280;64776;42.636;24.358;2023-12-28T14:13:41;90918.31;;;9.33;52.38
76074;BME280;64776;42.636;24.358;2023-12-28T14:16:43;90919.28;;;8.72;53.26
76074;BME280;64776;42.636;24.358;2023-12-28T14:19:44;90922.94;;;8.56;54.99
76074;BME280;64776;42.636;24.358;2023-12-28T14:22:46;90918.66;;;8.68;54.13
76074;BME280;64776;42.636;24.358;2023-12-28T14:25:47;90910.09;;;8.55;55.76
76074;BME280;64776;42.636;24.358;2023-12-28T14:28:48;90919.84;;;8.18;53.76
76074;BME280;64776;42.636;24.358;2023-12-28T14:31:51;90928.22;;;8.16;55.24
76074;BME280;64776;42.636;24.358;2023-12-28T14:34:53;90918.81;;;8.24;56.45
76074;BME280;64776;42.636;24.358;2023-12-28T14:37:53;90923.13;;;8.00;56.39
76074;BME280;64776;42.636;24.358;2023-12-28T14:40:54;90925.34;;;7.71;57.12
76074;BME280;64776;42.636;24.358;2023-12-28T14:43:56;90925.59;;;7.43;59.66
76074;BME280;64776;42.636;24.358;2023-12-28T14:46:58;90919.09;;;7.22;60.36
76074;BME280;64776;42.636;24.358;2023-12-28T14:49:59;90909.72;;;7.08;59.90
76074;BME280;64776;42.636;24.358;2023-12-28T14:53:00;90916.25;;;6.82;59.95
76074;BME280;64776;42.636;24.358;2023-12-28T14:56:01;90912.91;;;6.69;59.44
76074;BME280;64776;42.636;24.358;2023-12-28T14:59:02;90905.28;;;6.58;59.70
76074;BME280;64776;42.636;24.358;2023-12-28T15:02:04;90905.63;;;6.48;60.46
76074;BME280;64776;42.636;24.358;2023-12-28T15:05:05;90910.75;;;6.42;60.91
76074;BME280;64776;42.636;24.358;2023-12-28T15:08:06;90910.13;;;6.26;61.41
76074;BME280;64776;42.636;24.358;2023-12-28T15:11:08;90915.19;;;6.20;62.02
76074;BME280;64776;42.636;24.358;2023-12-28T15:14:09;90903.75;;;6.11;61.88
76074;BME280;64776;42.636;24.358;2023-12-28T15:17:12;90913.19;;;5.99;62.17
76074;BME280;64776;42.636;24.358;2023-12-28T15:20:13;90916.91;;;5.89;62.80
76074;BME280;64776;42.636;24.358;2023-12-28T15:23:16;90915.69;;;5.77;63.06
76074;BME280;64776;42.636;24.358;2023-12-28T15:26:17;90923.53;;;5.68;64.20
76074;BME280;64776;42.636;24.358;2023-12-28T15:29:18;90922.09;;;5.51;64.83
76074;BME280;64776;42.636;24.358;2023-12-28T15:32:20;90919.66;;;5.44;64.46
76074;BME280;64776;42.636;24.358;2023-12-28T15:35:21;90915.50;;;5.31;65.27
76074;BME280;64776;42.636;24.358;2023-12-28T15:38:21;90922.41;;;5.12;65.00
76074;BME280;64776;42.636;24.358;2023-12-28T15:41:22;90924.19;;;5.03;66.37
76074;BME280;64776;42.636;24.358;2023-12-28T15:44:23;90918.81;;;4.61;66.87
76074;BME280;64776;42.636;24.358;2023-12-28T15:47:25;90920.84;;;4.70;67.77
76074;BME280;64776;42.636;24.358;2023-12-28T15:50:26;90914.19;;;4.65;67.63
76074;BME280;64776;42.636;24.358;2023-12-28T15:53:26;90919.16;;;4.63;67.60